createdAt,value
2016-10-15T00:00:06.765Z,99.88
2016-10-15T00:01:06.776Z,99.64
2016-10-15T00:02:06.801Z,99.64
2016-10-15T00:03:06.818Z,99.83
2016-10-15T00:04:06.838Z,99.69
2016-10-15T00:05:06.859Z,99.59
2016-10-15T00:06:21.800Z,99.69
2016-10-15T00:07:06.957Z,99.97
2016-10-15T00:08:06.915Z,99.83
2016-10-15T00:09:06.937Z,99.83
2016-10-15T00:10:06.958Z,99.73
2016-10-15T00:11:06.975Z,99.73
2016-10-15T00:12:06.999Z,99.99
2016-10-15T00:13:07.013Z,99.88
2016-10-15T00:14:07.040Z,99.73
2016-10-15T00:15:07.054Z,99.99
2016-10-15T00:16:07.072Z,99.88
2016-10-15T00:18:07.113Z,99.73
2016-10-15T00:19:07.135Z,99.99
2016-10-15T00:20:07.158Z,99.99
2016-10-15T00:21:07.177Z,99.99
2016-10-15T00:22:22.114Z,99.99
2016-10-15T00:23:07.462Z,99.99
2016-10-15T00:24:07.236Z,99.99
2016-10-15T00:25:07.251Z,99.92
2016-10-15T00:26:07.276Z,99.99
2016-10-15T00:27:07.291Z,99.99
2016-10-15T00:28:07.315Z,99.99
2016-10-15T00:29:07.332Z,99.99
2016-10-15T00:30:07.351Z,99.99
2016-10-15T00:31:07.375Z,99.78
2016-10-15T00:32:07.389Z,99.99
2016-10-15T00:34:07.432Z,99.99
2016-10-15T00:35:07.449Z,99.99
2016-10-15T00:36:07.474Z,99.99
2016-10-15T00:38:22.432Z,99.97
2016-10-15T00:39:07.833Z,99.99
2016-10-15T00:40:07.552Z,99.99
2016-10-15T00:41:07.569Z,99.99
2016-10-15T00:42:07.665Z,99.99
2016-10-15T00:43:07.608Z,99.92
2016-10-15T00:44:07.631Z,99.99
2016-10-15T00:45:07.646Z,99.99
2016-10-15T00:47:07.735Z,99.99
2016-10-15T00:48:07.706Z,99.99
2016-10-15T00:50:07.746Z,99.99
2016-10-15T00:51:07.770Z,99.99
2016-10-15T00:52:07.786Z,99.99
2016-10-15T00:53:22.727Z,99.99
2016-10-15T00:54:07.823Z,99.99
2016-10-15T00:55:07.845Z,99.99
2016-10-15T00:56:07.866Z,99.99
2016-10-15T00:57:07.883Z,99.99
2016-10-15T00:58:07.906Z,99.99
2016-10-15T00:59:07.924Z,99.99
2016-10-15T01:00:07.945Z,99.99
2016-10-15T01:01:07.960Z,99.99
2016-10-15T01:02:07.982Z,99.99
2016-10-15T01:03:08.005Z,99.99
2016-10-15T01:04:08.021Z,99.99
2016-10-15T01:05:08.049Z,99.99
2016-10-15T01:07:08.412Z,99.99
2016-10-15T01:08:08.126Z,99.99
2016-10-15T01:09:08.120Z,99.99
2016-10-15T01:10:08.140Z,99.99
2016-10-15T01:11:08.160Z,99.99
2016-10-15T01:12:08.175Z,99.99
2016-10-15T01:13:08.203Z,99.99
2016-10-15T01:14:08.219Z,99.99
2016-10-15T01:15:08.239Z,99.99
2016-10-15T01:16:08.257Z,99.99
2016-10-15T01:17:08.278Z,99.99
2016-10-15T01:18:08.301Z,99.99
2016-10-15T01:19:08.317Z,99.99
2016-10-15T01:21:08.614Z,99.99
2016-10-15T01:22:08.374Z,99.99
2016-10-15T01:23:08.394Z,99.99
2016-10-15T01:24:08.412Z,99.99
2016-10-15T01:25:23.356Z,99.99
2016-10-15T01:26:08.459Z,99.99
2016-10-15T01:27:08.475Z,99.99
2016-10-15T01:28:08.491Z,99.99
2016-10-15T01:29:08.516Z,99.99
2016-10-15T01:30:08.532Z,99.99
2016-10-15T01:31:08.551Z,99.99
2016-10-15T01:32:08.571Z,99.99
2016-10-15T01:33:08.588Z,99.99
2016-10-15T01:34:08.611Z,99.99
2016-10-15T01:35:08.629Z,99.99
2016-10-15T01:36:08.650Z,99.99
2016-10-15T01:37:08.674Z,99.99
2016-10-15T01:38:08.709Z,99.99
2016-10-15T01:39:08.719Z,99.99
2016-10-15T01:41:23.672Z,99.99
2016-10-15T01:42:08.769Z,99.99
2016-10-15T01:43:08.790Z,99.99
2016-10-15T01:44:08.810Z,99.99
2016-10-15T01:45:08.825Z,99.99
2016-10-15T01:46:08.851Z,99.99
2016-10-15T01:47:08.866Z,99.99
2016-10-15T01:48:08.888Z,99.99
2016-10-15T01:49:08.907Z,99.99
2016-10-15T01:50:08.927Z,99.99
2016-10-15T01:51:08.946Z,99.99
2016-10-15T01:52:08.963Z,99.99
2016-10-15T01:54:09.009Z,99.99
2016-10-15T01:55:09.023Z,99.99
2016-10-15T01:56:09.047Z,99.99
2016-10-15T01:57:23.987Z,99.99
2016-10-15T01:58:09.085Z,99.99
2016-10-15T01:59:09.105Z,99.99
2016-10-15T02:00:09.126Z,99.99
2016-10-15T02:01:09.143Z,99.99
2016-10-15T02:02:09.165Z,99.99
2016-10-15T02:03:09.183Z,99.99
2016-10-15T02:04:09.200Z,99.99
2016-10-15T02:05:09.219Z,99.99
2016-10-15T02:06:09.245Z,99.99
2016-10-15T02:07:09.262Z,99.99
2016-10-15T02:08:09.283Z,99.99
2016-10-15T02:09:09.351Z,99.99
2016-10-15T02:10:09.320Z,99.99
2016-10-15T02:11:09.337Z,99.99
2016-10-15T02:12:09.368Z,99.99
2016-10-15T02:13:24.300Z,99.99
2016-10-15T02:14:09.402Z,99.99
2016-10-15T02:15:09.420Z,99.99
2016-10-15T02:16:09.439Z,99.99
2016-10-15T02:17:09.462Z,99.99
2016-10-15T02:18:09.475Z,99.99
2016-10-15T02:19:09.498Z,99.99
2016-10-15T02:20:09.519Z,99.99
2016-10-15T02:21:09.537Z,99.99
2016-10-15T02:22:09.559Z,99.99
2016-10-15T02:23:09.586Z,99.99
2016-10-15T02:24:09.598Z,99.99
2016-10-15T02:25:09.618Z,99.99
2016-10-15T02:26:09.638Z,99.99
2016-10-15T02:27:09.655Z,99.99
2016-10-15T02:28:24.597Z,99.99
2016-10-15T02:29:09.693Z,99.99
2016-10-15T02:30:09.713Z,99.99
2016-10-15T02:31:09.738Z,99.99
2016-10-15T02:32:09.754Z,99.99
2016-10-15T02:33:09.776Z,99.99
2016-10-15T02:34:09.794Z,99.99
2016-10-15T02:35:09.816Z,99.99
2016-10-15T02:36:09.836Z,99.99
2016-10-15T02:37:09.851Z,99.99
2016-10-15T02:38:09.874Z,99.99
2016-10-15T02:39:09.893Z,99.99
2016-10-15T02:40:09.913Z,99.99
2016-10-15T02:41:09.932Z,99.99
2016-10-15T02:42:09.949Z,99.99
2016-10-15T02:43:09.976Z,99.99
2016-10-15T02:44:09.995Z,99.99
2016-10-15T02:45:10.013Z,99.99
2016-10-15T02:46:10.033Z,99.99
2016-10-15T02:47:10.049Z,99.99
2016-10-15T02:48:10.073Z,99.99
2016-10-15T02:49:10.086Z,99.99
2016-10-15T02:50:10.211Z,99.99
2016-10-15T02:51:10.384Z,99.99
2016-10-15T02:52:10.146Z,99.99
2016-10-15T02:53:10.166Z,99.99
2016-10-15T02:54:10.192Z,99.99
2016-10-15T02:56:10.224Z,99.99
2016-10-15T02:57:10.251Z,99.99
2016-10-15T02:58:10.263Z,99.99
2016-10-15T02:59:10.286Z,99.99
2016-10-15T03:00:25.226Z,99.99
2016-10-15T03:01:10.323Z,99.99
2016-10-15T03:02:10.347Z,99.99
2016-10-15T03:03:10.365Z,99.99
2016-10-15T03:04:10.383Z,99.99
2016-10-15T03:05:10.409Z,99.99
2016-10-15T03:06:10.427Z,99.99
2016-10-15T03:07:10.447Z,99.99
2016-10-15T03:08:10.463Z,99.99
2016-10-15T03:09:10.484Z,99.99
2016-10-15T03:10:10.504Z,99.99
2016-10-15T03:11:10.523Z,99.99
2016-10-15T03:12:10.542Z,99.99
2016-10-15T03:13:10.561Z,99.99
2016-10-15T03:14:10.584Z,99.99
2016-10-15T03:15:10.601Z,99.99
2016-10-15T03:16:25.541Z,99.99
2016-10-15T03:17:10.645Z,99.99
2016-10-15T03:18:10.660Z,99.99
2016-10-15T03:19:10.677Z,99.99
2016-10-15T03:20:10.700Z,99.99
2016-10-15T03:21:10.719Z,99.99
2016-10-15T03:22:10.737Z,99.99
2016-10-15T03:23:10.758Z,99.99
2016-10-15T03:24:10.775Z,99.99
2016-10-15T03:25:10.905Z,99.99
2016-10-15T03:26:10.820Z,99.99
2016-10-15T03:28:10.857Z,99.99
2016-10-15T03:29:10.878Z,99.99
2016-10-15T03:31:10.915Z,99.99
2016-10-15T03:32:25.857Z,99.99
2016-10-15T03:34:10.975Z,99.99
2016-10-15T03:35:10.997Z,99.99
2016-10-15T03:36:11.013Z,99.99
2016-10-15T03:37:11.031Z,99.99
2016-10-15T03:38:11.051Z,99.99
2016-10-15T03:39:11.075Z,99.99
2016-10-15T03:40:11.095Z,99.99
2016-10-15T03:41:11.115Z,99.99
2016-10-15T03:42:11.137Z,99.99
2016-10-15T03:43:11.151Z,99.99
2016-10-15T03:44:11.167Z,99.99
2016-10-15T03:45:11.191Z,99.99
2016-10-15T03:46:11.206Z,99.99
2016-10-15T03:47:11.233Z,99.99
2016-10-15T03:48:26.170Z,99.99
2016-10-15T03:49:11.271Z,99.99
2016-10-15T03:50:11.387Z,99.99
2016-10-15T03:51:11.305Z,99.99
2016-10-15T03:52:11.330Z,99.99
2016-10-15T03:53:11.347Z,99.99
2016-10-15T03:54:11.370Z,99.99
2016-10-15T03:55:11.390Z,99.99
2016-10-15T03:56:11.408Z,99.99
2016-10-15T03:57:11.423Z,99.99
2016-10-15T03:58:11.444Z,99.99
2016-10-15T03:59:11.465Z,99.99
2016-10-15T04:00:11.483Z,99.99
2016-10-15T04:01:11.508Z,99.99
2016-10-15T04:03:26.467Z,99.99
2016-10-15T04:04:11.564Z,99.99
2016-10-15T04:05:11.585Z,99.99
2016-10-15T04:06:11.604Z,99.99
2016-10-15T04:07:11.625Z,99.99
2016-10-15T04:08:11.643Z,99.99
2016-10-15T04:09:11.663Z,99.99
2016-10-15T04:10:11.684Z,99.99
2016-10-15T04:11:11.700Z,99.99
2016-10-15T04:12:11.718Z,99.99
2016-10-15T04:13:11.758Z,99.99
2016-10-15T04:15:11.778Z,99.99
2016-10-15T04:17:11.819Z,99.99
2016-10-15T04:18:11.837Z,99.99
2016-10-15T04:19:12.160Z,99.99
2016-10-15T04:20:11.879Z,99.99
2016-10-15T04:21:11.895Z,99.99
2016-10-15T04:22:11.921Z,99.99
2016-10-15T04:23:11.936Z,99.99
2016-10-15T04:24:11.964Z,99.99
2016-10-15T04:25:12.234Z,99.99
2016-10-15T04:26:11.998Z,99.99
2016-10-15T04:27:12.017Z,99.99
2016-10-15T04:28:12.035Z,99.99
2016-10-15T04:29:12.053Z,99.99
2016-10-15T04:30:12.074Z,99.99
2016-10-15T04:32:12.110Z,99.99
2016-10-15T04:34:12.154Z,99.99
2016-10-15T04:35:27.095Z,99.99
2016-10-15T04:36:12.194Z,99.99
2016-10-15T04:37:12.210Z,99.99
2016-10-15T04:38:12.229Z,99.99
2016-10-15T04:39:12.301Z,99.99
2016-10-15T04:40:12.271Z,99.99
2016-10-15T04:41:12.293Z,99.99
2016-10-15T04:42:12.612Z,99.99
2016-10-15T04:43:12.332Z,99.99
2016-10-15T04:44:12.348Z,99.99
2016-10-15T04:45:12.369Z,99.99
2016-10-15T04:46:12.392Z,99.99
2016-10-15T04:47:12.413Z,99.99
2016-10-15T04:48:12.428Z,99.99
2016-10-15T04:49:12.450Z,99.99
2016-10-15T04:50:12.722Z,99.99
2016-10-15T04:51:27.408Z,99.99
2016-10-15T04:52:12.504Z,99.99
2016-10-15T04:53:12.530Z,99.99
2016-10-15T04:54:12.545Z,99.99
2016-10-15T04:55:12.569Z,99.99
2016-10-15T04:56:12.584Z,99.99
2016-10-15T04:57:12.606Z,99.99
2016-10-15T04:58:12.628Z,99.99
2016-10-15T04:59:12.654Z,99.99
2016-10-15T05:01:12.692Z,99.99
2016-10-15T05:03:12.730Z,99.99
2016-10-15T05:05:12.759Z,99.99
2016-10-15T05:06:12.785Z,99.99
2016-10-15T05:07:27.722Z,99.99
2016-10-15T05:08:12.819Z,99.99
2016-10-15T05:09:12.842Z,99.99
2016-10-15T05:10:12.860Z,99.99
2016-10-15T05:11:12.881Z,99.99
2016-10-15T05:12:13.050Z,99.99
2016-10-15T05:13:12.924Z,99.99
2016-10-15T05:14:12.937Z,99.99
2016-10-15T05:15:12.967Z,99.99
2016-10-15T05:16:12.977Z,99.99
2016-10-15T05:17:12.997Z,99.99
2016-10-15T05:18:13.014Z,99.99
2016-10-15T05:19:13.035Z,99.99
2016-10-15T05:20:13.057Z,99.99
2016-10-15T05:21:13.077Z,99.99
2016-10-15T05:23:28.039Z,99.99
2016-10-15T05:24:13.137Z,99.99
2016-10-15T05:25:13.155Z,99.99
2016-10-15T05:26:13.175Z,99.99
2016-10-15T05:27:13.191Z,99.99
2016-10-15T05:28:13.212Z,99.99
2016-10-15T05:29:13.234Z,99.99
2016-10-15T05:30:13.255Z,99.99
2016-10-15T05:31:13.273Z,99.99
2016-10-15T05:32:13.297Z,99.99
2016-10-15T05:33:13.620Z,99.99
2016-10-15T05:34:13.334Z,99.99
2016-10-15T05:35:13.349Z,99.99
2016-10-15T05:36:13.376Z,99.99
2016-10-15T05:37:13.397Z,99.99
2016-10-15T05:38:28.334Z,99.99
2016-10-15T05:39:13.432Z,99.99
2016-10-15T05:40:13.454Z,99.99
2016-10-15T05:41:13.474Z,99.99
2016-10-15T05:42:13.493Z,99.99
2016-10-15T05:43:13.761Z,99.99
2016-10-15T05:44:13.532Z,99.99
2016-10-15T05:45:13.550Z,99.99
2016-10-15T05:46:13.569Z,99.99
2016-10-15T05:47:13.587Z,99.99
2016-10-15T05:48:13.608Z,99.99
2016-10-15T05:49:13.627Z,99.99
2016-10-15T05:50:13.652Z,99.99
2016-10-15T05:51:13.664Z,99.99
2016-10-15T05:52:13.687Z,99.99
2016-10-15T05:53:13.707Z,99.99
2016-10-15T05:54:13.725Z,99.99
2016-10-15T05:55:13.746Z,99.99
2016-10-15T05:56:14.062Z,99.99
2016-10-15T05:57:13.790Z,99.99
2016-10-15T05:58:13.803Z,99.99
2016-10-15T05:59:13.827Z,99.99
2016-10-15T06:00:13.843Z,99.99
2016-10-15T06:01:13.863Z,99.99
2016-10-15T06:02:13.885Z,99.99
2016-10-15T06:04:13.924Z,99.99
2016-10-15T06:05:13.941Z,99.99
2016-10-15T06:07:13.984Z,99.99
2016-10-15T06:08:14.007Z,99.99
2016-10-15T06:09:14.026Z,99.99
2016-10-15T06:10:28.966Z,99.99
2016-10-15T06:11:14.071Z,99.99
2016-10-15T06:12:14.086Z,99.99
2016-10-15T06:13:14.100Z,99.99
2016-10-15T06:14:14.126Z,99.99
2016-10-15T06:15:14.141Z,99.99
2016-10-15T06:16:14.164Z,99.99
2016-10-15T06:17:14.183Z,99.99
2016-10-15T06:18:14.450Z,99.88
2016-10-15T06:19:14.224Z,99.64
2016-10-15T06:20:14.249Z,99.55
2016-10-15T06:22:14.280Z,99.07
2016-10-15T06:23:14.556Z,99.16
2016-10-15T06:24:14.326Z,99.16
2016-10-15T06:25:14.343Z,99.16
2016-10-15T06:26:29.284Z,98.88
2016-10-15T06:27:14.381Z,98.97
2016-10-15T06:28:14.399Z,98.41
2016-10-15T06:29:14.424Z,98.41
2016-10-15T06:30:14.444Z,98.88
2016-10-15T06:31:14.462Z,98.69
2016-10-15T06:32:14.482Z,98.22
2016-10-15T06:33:14.506Z,98.6
2016-10-15T06:34:14.525Z,98.88
2016-10-15T06:35:14.543Z,98.5
2016-10-15T06:36:14.568Z,98.41
2016-10-15T06:37:14.587Z,98.6
2016-10-15T06:38:14.605Z,98.03
2016-10-15T06:39:14.623Z,98.6
2016-10-15T06:40:14.648Z,98.41
2016-10-15T06:41:14.666Z,98.6
2016-10-15T06:42:29.608Z,98.79
2016-10-15T06:43:14.707Z,98.03
2016-10-15T06:44:14.723Z,98.6
2016-10-15T06:45:14.744Z,98.69
2016-10-15T06:46:14.769Z,98.22
2016-10-15T06:47:14.790Z,98.12
2016-10-15T06:48:14.809Z,98.31
2016-10-15T06:49:14.827Z,98.41
2016-10-15T06:50:14.850Z,98.12
2016-10-15T06:51:14.870Z,97.93
2016-10-15T06:52:14.892Z,98.22
2016-10-15T06:53:14.906Z,98.12
2016-10-15T06:54:14.928Z,97.83
2016-10-15T06:55:14.957Z,98.41
2016-10-15T06:56:14.966Z,98.03
2016-10-15T06:57:14.992Z,98.12
2016-10-15T06:58:29.932Z,97.55
2016-10-15T06:59:15.032Z,98.03
2016-10-15T07:00:15.299Z,97.55
2016-10-15T07:01:15.068Z,98.03
2016-10-15T07:02:15.087Z,97.08
2016-10-15T07:03:15.107Z,97.17
2016-10-15T07:04:15.128Z,97.64
2016-10-15T07:05:15.151Z,97.08
2016-10-15T07:06:15.172Z,97.74
2016-10-15T07:07:15.189Z,97.36
2016-10-15T07:08:15.215Z,97.27
2016-10-15T07:09:15.233Z,97.45
2016-10-15T07:10:15.251Z,97.55
2016-10-15T07:12:15.294Z,97.27
2016-10-15T07:13:30.234Z,97.36
2016-10-15T07:14:15.332Z,96.98
2016-10-15T07:15:15.355Z,97.36
2016-10-15T07:16:15.373Z,96.79
2016-10-15T07:17:15.393Z,96.89
2016-10-15T07:18:15.415Z,96.55
2016-10-15T07:19:15.438Z,96.22
2016-10-15T07:20:15.466Z,95.7
2016-10-15T07:21:15.479Z,95.98
2016-10-15T07:22:15.497Z,96.17
2016-10-15T07:23:15.517Z,96.17
2016-10-15T07:24:15.846Z,95.98
2016-10-15T07:25:15.561Z,96.17
2016-10-15T07:26:15.574Z,96.26
2016-10-15T07:27:15.607Z,95.89
2016-10-15T07:29:15.647Z,95.98
2016-10-15T07:30:15.658Z,96.36
2016-10-15T07:31:15.677Z,96.36
2016-10-15T07:33:15.721Z,95.41
2016-10-15T07:34:15.738Z,95.41
2016-10-15T07:35:15.759Z,95.6
2016-10-15T07:36:15.794Z,95.32
2016-10-15T07:37:15.798Z,95.6
2016-10-15T07:38:15.822Z,95.12
2016-10-15T07:39:16.140Z,94.84
2016-10-15T07:40:15.868Z,95.32
2016-10-15T07:41:15.882Z,95.22
2016-10-15T07:42:15.908Z,95.12
2016-10-15T07:43:15.928Z,95.41
2016-10-15T07:44:15.946Z,94.84
2016-10-15T07:45:30.887Z,94.65
2016-10-15T07:46:15.987Z,94.65
2016-10-15T07:47:16.006Z,94.56
2016-10-15T07:48:16.034Z,94.46
2016-10-15T07:49:16.048Z,94.32
2016-10-15T07:50:16.066Z,94.27
2016-10-15T07:51:16.093Z,94.27
2016-10-15T07:52:16.112Z,94.51
2016-10-15T07:53:16.131Z,94.65
2016-10-15T07:54:16.152Z,94.74
2016-10-15T07:55:16.169Z,94.65
2016-10-15T07:56:16.196Z,94.18
2016-10-15T07:57:16.212Z,94.27
2016-10-15T07:59:16.256Z,94.74
2016-10-15T08:00:16.277Z,94.6
2016-10-15T08:01:31.220Z,94.6
2016-10-15T08:02:16.317Z,94.22
2016-10-15T08:03:16.334Z,94.22
2016-10-15T08:04:16.372Z,94.13
2016-10-15T08:05:16.382Z,93.65
2016-10-15T08:06:16.399Z,93.74
2016-10-15T08:07:16.417Z,93.6
2016-10-15T08:09:16.460Z,94.13
2016-10-15T08:11:16.503Z,93.65
2016-10-15T08:12:16.526Z,93.37
2016-10-15T08:13:16.547Z,93.37
2016-10-15T08:14:16.568Z,92.99
2016-10-15T08:15:16.591Z,92.89
2016-10-15T08:16:16.605Z,91.94
2016-10-15T08:17:31.552Z,92.13
2016-10-15T08:18:16.648Z,92.7
2016-10-15T08:19:16.675Z,92.08
2016-10-15T08:20:16.692Z,91.89
2016-10-15T08:21:16.712Z,91.7
2016-10-15T08:22:16.738Z,91.79
2016-10-15T08:23:16.760Z,91.22
2016-10-15T08:24:16.775Z,90.94
2016-10-15T08:25:16.795Z,90.94
2016-10-15T08:26:16.824Z,91.41
2016-10-15T08:27:16.841Z,90.65
2016-10-15T08:28:16.867Z,90.75
2016-10-15T08:30:16.902Z,90.65
2016-10-15T08:31:16.929Z,90.36
2016-10-15T08:32:16.950Z,90.84
2016-10-15T08:33:31.889Z,90.56
2016-10-15T08:34:16.992Z,90.84
2016-10-15T08:35:17.009Z,90.46
2016-10-15T08:36:17.034Z,90.84
2016-10-15T08:37:17.355Z,90.94
2016-10-15T08:38:17.073Z,90.56
2016-10-15T08:39:17.093Z,90.27
2016-10-15T08:40:17.115Z,90.17
2016-10-15T08:41:17.141Z,90.41
2016-10-15T08:42:17.158Z,89.98
2016-10-15T08:43:17.183Z,90.17
2016-10-15T08:44:17.456Z,90.46
2016-10-15T08:45:17.222Z,90.65
2016-10-15T08:46:17.245Z,91.13
2016-10-15T08:47:17.273Z,90.7
2016-10-15T08:48:32.213Z,90.75
2016-10-15T08:49:17.311Z,90.46
2016-10-15T08:50:17.336Z,90.75
2016-10-15T08:51:17.353Z,90.41
2016-10-15T08:52:17.378Z,89.65
2016-10-15T08:53:17.396Z,89.94
2016-10-15T08:54:17.418Z,89.84
2016-10-15T08:55:17.443Z,89.55
2016-10-15T08:56:17.461Z,89.84
2016-10-15T08:57:17.479Z,89.46
2016-10-15T08:58:17.506Z,89.84
2016-10-15T08:59:17.523Z,88.41
2016-10-15T09:00:17.547Z,88.7
2016-10-15T09:01:17.569Z,88.7
2016-10-15T09:02:17.588Z,88.7
2016-10-15T09:03:17.617Z,89.17
2016-10-15T09:04:17.638Z,89.89
2016-10-15T09:05:17.657Z,88.36
2016-10-15T09:06:17.675Z,88.84
2016-10-15T09:07:17.708Z,88.74
2016-10-15T09:08:17.720Z,88.64
2016-10-15T09:09:17.744Z,88.79
2016-10-15T09:10:17.764Z,89.17
2016-10-15T09:11:17.790Z,89.65
2016-10-15T09:12:17.809Z,89.55
2016-10-15T09:13:17.830Z,89.36
2016-10-15T09:14:17.852Z,89.17
2016-10-15T09:15:17.878Z,89.36
2016-10-15T09:16:17.901Z,90.03
2016-10-15T09:17:17.921Z,89.17
2016-10-15T09:18:18.039Z,89.4
2016-10-15T09:19:17.967Z,89.6
2016-10-15T09:20:32.909Z,89.6
2016-10-15T09:21:18.006Z,89.31
2016-10-15T09:22:18.031Z,89.4
2016-10-15T09:23:18.052Z,89.5
2016-10-15T09:24:18.071Z,89.79
2016-10-15T09:25:18.099Z,89.89
2016-10-15T09:26:18.118Z,89.79
2016-10-15T09:27:18.139Z,90.36
2016-10-15T09:28:18.161Z,89.89
2016-10-15T09:29:18.181Z,89.79
2016-10-15T09:30:18.510Z,89.31
2016-10-15T09:31:18.525Z,89.31
2016-10-15T09:32:18.252Z,89.6
2016-10-15T09:33:18.274Z,89.6
2016-10-15T09:34:18.291Z,89.69
2016-10-15T09:36:33.259Z,90.55
2016-10-15T09:37:18.355Z,90.5
2016-10-15T09:38:18.378Z,90.98
2016-10-15T09:39:18.401Z,90.41
2016-10-15T09:40:18.421Z,90.7
2016-10-15T09:41:18.448Z,90.6
2016-10-15T09:42:18.463Z,91.46
2016-10-15T09:43:18.489Z,91.08
2016-10-15T09:44:18.514Z,90.89
2016-10-15T09:45:18.528Z,91.27
2016-10-15T09:46:18.554Z,91.17
2016-10-15T09:47:18.676Z,91.65
2016-10-15T09:48:18.598Z,91.55
2016-10-15T09:50:18.638Z,91.74
2016-10-15T09:51:18.663Z,92.03
2016-10-15T09:52:33.607Z,92.6
2016-10-15T09:53:18.707Z,92.89
2016-10-15T09:54:18.730Z,93.51
2016-10-15T09:55:18.773Z,94.08
2016-10-15T09:56:18.772Z,93.93
2016-10-15T09:57:18.793Z,94.51
2016-10-15T09:58:18.817Z,95.46
2016-10-15T09:59:18.835Z,95.12
2016-10-15T10:00:18.857Z,94.41
2016-10-15T10:01:18.880Z,94.98
2016-10-15T10:02:18.901Z,95.84
2016-10-15T10:03:18.922Z,95.56
2016-10-15T10:04:18.949Z,95.84
2016-10-15T10:06:18.993Z,94.98
2016-10-15T10:08:33.956Z,96.32
2016-10-15T10:09:19.058Z,96.03
2016-10-15T10:10:19.075Z,96.12
2016-10-15T10:11:19.099Z,96.32
2016-10-15T10:12:19.118Z,96.56
2016-10-15T10:13:19.142Z,96.17
2016-10-15T10:14:19.162Z,96.84
2016-10-15T10:15:19.182Z,97.13
2016-10-15T10:16:19.207Z,97.51
2016-10-15T10:17:19.280Z,97.32
2016-10-15T10:18:19.270Z,97.32
2016-10-15T10:19:19.272Z,96.75
2016-10-15T10:20:19.291Z,96.75
2016-10-15T10:21:19.314Z,96.46
2016-10-15T10:22:19.340Z,96.56
2016-10-15T10:23:34.282Z,96.56
2016-10-15T10:24:19.380Z,96.75
2016-10-15T10:25:19.402Z,96.56
2016-10-15T10:26:19.425Z,96.56
2016-10-15T10:27:19.452Z,96.94
2016-10-15T10:28:19.470Z,97.22
2016-10-15T10:29:19.493Z,97.13
2016-10-15T10:30:19.515Z,96.84
2016-10-15T10:31:19.534Z,96.36
2016-10-15T10:32:19.557Z,96.27
2016-10-15T10:33:19.580Z,97.13
2016-10-15T10:34:19.600Z,96.36
2016-10-15T10:37:19.671Z,97.75
2016-10-15T10:38:19.691Z,98.18
2016-10-15T10:39:19.712Z,97.94
2016-10-15T10:40:19.734Z,97.56
2016-10-15T10:41:19.756Z,97.56
2016-10-15T10:42:19.779Z,97.75
2016-10-15T10:43:19.797Z,97.8
2016-10-15T10:44:19.821Z,97.41
2016-10-15T10:45:19.844Z,97.61
2016-10-15T10:46:19.868Z,97.51
2016-10-15T10:47:19.892Z,97.7
2016-10-15T10:48:19.911Z,97.41
2016-10-15T10:49:19.933Z,97.51
2016-10-15T10:51:19.971Z,97.32
2016-10-15T10:52:19.998Z,97.51
2016-10-15T10:53:20.016Z,97.51
2016-10-15T10:54:20.042Z,97.7
2016-10-15T10:55:34.987Z,96.65
2016-10-15T10:56:20.086Z,97.41
2016-10-15T10:57:20.107Z,97.8
2016-10-15T10:58:20.129Z,97.7
2016-10-15T10:59:20.149Z,97.61
2016-10-15T11:00:20.178Z,97.8
2016-10-15T11:01:20.194Z,98.46
2016-10-15T11:02:20.220Z,98.18
2016-10-15T11:03:20.243Z,98.36
2016-10-15T11:04:20.261Z,97.8
2016-10-15T11:05:20.285Z,98.08
2016-10-15T11:06:20.303Z,98.99
2016-10-15T11:07:20.323Z,98.6
2016-10-15T11:08:20.351Z,98.89
2016-10-15T11:09:20.375Z,99.37
2016-10-15T11:10:20.397Z,99.65
2016-10-15T11:11:35.336Z,99.65
2016-10-15T11:12:20.437Z,99.37
2016-10-15T11:13:20.458Z,99.37
2016-10-15T11:14:20.483Z,99.46
2016-10-15T11:15:20.502Z,99.99
2016-10-15T11:16:20.523Z,99.99
2016-10-15T11:17:20.543Z,99.99
2016-10-15T11:18:20.567Z,99.99
2016-10-15T11:19:20.593Z,99.99
2016-10-15T11:20:20.609Z,99.99
2016-10-15T11:21:20.632Z,99.99
2016-10-15T11:22:20.653Z,99.99
2016-10-15T11:24:20.701Z,99.99
2016-10-15T11:27:35.685Z,99.99
2016-10-15T11:28:20.788Z,99.99
2016-10-15T11:29:20.811Z,99.99
2016-10-15T11:30:20.830Z,99.99
2016-10-15T11:31:20.851Z,99.99
2016-10-15T11:32:20.875Z,99.99
2016-10-15T11:33:20.894Z,99.99
2016-10-15T11:34:20.916Z,99.99
2016-10-15T11:35:20.941Z,99.99
2016-10-15T11:36:21.063Z,99.99
2016-10-15T11:37:20.983Z,99.99
2016-10-15T11:38:21.258Z,99.99
2016-10-15T11:39:21.024Z,99.99
2016-10-15T11:40:21.051Z,99.99
2016-10-15T11:41:21.071Z,99.99
2016-10-15T11:42:21.089Z,99.99
2016-10-15T11:43:36.040Z,99.99
2016-10-15T11:44:21.138Z,99.99
2016-10-15T11:45:21.163Z,99.99
2016-10-15T11:46:21.183Z,99.99
2016-10-15T11:47:21.204Z,99.99
2016-10-15T11:48:21.222Z,99.99
2016-10-15T11:49:21.244Z,99.99
2016-10-15T11:50:21.269Z,99.99
2016-10-15T11:51:21.300Z,99.99
2016-10-15T11:52:21.309Z,99.99
2016-10-15T11:53:21.335Z,99.99
2016-10-15T11:54:21.354Z,99.99
2016-10-15T11:55:21.380Z,99.99
2016-10-15T11:56:21.404Z,99.99
2016-10-15T11:57:21.425Z,99.99
2016-10-15T11:58:36.366Z,99.99
2016-10-15T11:59:21.466Z,99.99
2016-10-15T12:00:21.491Z,99.99
2016-10-15T12:01:21.513Z,99.99
2016-10-15T12:02:21.548Z,99.99
2016-10-15T12:03:21.555Z,99.99
2016-10-15T12:04:21.573Z,99.99
2016-10-15T12:05:21.594Z,99.99
2016-10-15T12:06:21.618Z,99.99
2016-10-15T12:07:21.643Z,99.99
2016-10-15T12:08:21.665Z,99.99
2016-10-15T12:09:21.685Z,99.99
2016-10-15T12:11:21.725Z,99.99
2016-10-15T12:12:21.751Z,99.99
2016-10-15T12:13:21.776Z,99.99
2016-10-15T12:14:21.799Z,99.99
2016-10-15T12:15:21.818Z,99.99
2016-10-15T12:16:21.842Z,99.99
2016-10-15T12:17:21.859Z,99.99
2016-10-15T12:18:21.880Z,99.99
2016-10-15T12:19:21.904Z,99.99
2016-10-15T12:20:21.923Z,99.99
2016-10-15T12:21:21.944Z,99.99
2016-10-15T12:22:21.967Z,99.99
2016-10-15T12:23:21.988Z,99.99
2016-10-15T12:24:22.028Z,99.99
2016-10-15T12:25:22.040Z,99.99
2016-10-15T12:26:22.056Z,99.99
2016-10-15T12:27:22.077Z,99.99
2016-10-15T12:28:22.101Z,99.99
2016-10-15T12:29:22.121Z,99.99
2016-10-15T12:30:37.066Z,99.99
2016-10-15T12:31:22.166Z,99.99
2016-10-15T12:32:22.190Z,99.99
2016-10-15T12:33:22.209Z,99.99
2016-10-15T12:34:22.230Z,99.99
2016-10-15T12:35:22.252Z,99.99
2016-10-15T12:36:22.275Z,99.99
2016-10-15T12:37:22.294Z,99.99
2016-10-15T12:38:22.320Z,99.99
2016-10-15T12:39:22.339Z,99.99
2016-10-15T12:40:22.362Z,99.99
2016-10-15T12:41:22.380Z,99.99
2016-10-15T12:42:22.409Z,99.99
2016-10-15T12:44:22.451Z,99.99
2016-10-15T12:45:22.475Z,99.99
2016-10-15T12:46:37.415Z,99.99
2016-10-15T12:47:22.514Z,99.99
2016-10-15T12:48:22.541Z,99.99
2016-10-15T12:49:22.557Z,99.99
2016-10-15T12:50:22.580Z,99.99
2016-10-15T12:51:22.604Z,99.99
2016-10-15T12:52:22.626Z,99.99
2016-10-15T12:53:22.646Z,99.99
2016-10-15T12:54:22.670Z,99.99
2016-10-15T12:55:22.695Z,99.99
2016-10-15T12:56:22.715Z,99.99
2016-10-15T12:57:22.739Z,99.99
2016-10-15T12:59:22.780Z,99.99
2016-10-15T13:01:22.823Z,99.99
2016-10-15T13:02:37.769Z,99.99
2016-10-15T13:03:22.867Z,99.99
2016-10-15T13:04:22.892Z,99.99
2016-10-15T13:05:22.910Z,99.99
2016-10-15T13:06:22.932Z,99.99
2016-10-15T13:07:22.956Z,99.99
2016-10-15T13:08:22.982Z,99.99
2016-10-15T13:09:23.002Z,99.99
2016-10-15T13:10:23.324Z,99.99
2016-10-15T13:11:23.046Z,99.99
2016-10-15T13:12:23.064Z,99.99
2016-10-15T13:13:23.088Z,99.99
2016-10-15T13:15:23.132Z,99.99
2016-10-15T13:16:23.154Z,99.99
2016-10-15T13:17:23.175Z,99.99
2016-10-15T13:18:38.122Z,99.99
2016-10-15T13:19:23.520Z,99.99
2016-10-15T13:20:23.244Z,99.99
2016-10-15T13:21:23.267Z,99.99
2016-10-15T13:22:23.285Z,99.99
2016-10-15T13:23:23.313Z,99.99
2016-10-15T13:24:23.334Z,99.99
2016-10-15T13:25:23.355Z,99.99
2016-10-15T13:26:23.375Z,99.99
2016-10-15T13:27:23.398Z,99.99
2016-10-15T13:28:23.421Z,99.99
2016-10-15T13:29:23.693Z,99.99
2016-10-15T13:30:23.463Z,99.99
2016-10-15T13:31:23.487Z,99.99
2016-10-15T13:32:23.508Z,99.99
2016-10-15T13:33:38.451Z,99.99
2016-10-15T13:34:23.550Z,99.99
2016-10-15T13:35:23.575Z,99.99
2016-10-15T13:36:23.598Z,99.99
2016-10-15T13:37:23.620Z,99.99
2016-10-15T13:38:23.637Z,99.99
2016-10-15T13:39:23.661Z,99.99
2016-10-15T13:40:23.684Z,99.99